Time;durP1;ratioP1;P1;durP2;ratioP2;P2;SDS_P1;SDS_P2;PMS_P1;PMS_P2;Temp;Humidity;BMP_temperature;BMP_pressure;BME280_temperature;BME280_humidity;BME280_pressure;Samples;Min_cycle;Max_cycle;Signal;HPM_P1;HPM_P2
2023/10/04 00:00:34;;;;;;;9.43;2.27;;;;;;;15.78;100.00;102418.72;5047598;28;20112;-58
2023/10/04 00:03:00;;;;;;;7.45;2.38;;;;;;;15.71;100.00;102414.53;5047523;28;20447;-57
2023/10/04 00:05:26;;;;;;;11.95;2.42;;;;;;;15.65;100.00;102428.00;5047719;28;20079;-55
2023/10/04 00:07:53;;;;;;;6.78;2.25;;;;;;;15.64;100.00;102411.19;5047455;28;20049;-57
2023/10/04 00:10:20;;;;;;;9.65;2.50;;;;;;;15.61;100.00;102421.03;5029461;28;20025;-58
2023/10/04 00:12:46;;;;;;;12.63;2.47;;;;;;;15.63;100.00;102420.06;5026463;28;20021;-59
2023/10/04 00:15:13;;;;;;;11.63;2.35;;;;;;;15.62;100.00;102428.97;5027918;28;20380;-58
2023/10/04 00:17:42;;;;;;;9.55;2.20;;;;;;;15.59;100.00;102429.06;5010474;28;20533;-58
2023/10/04 00:20:16;;;;;;;10.20;2.50;;;;;;;15.58;100.00;102437.94;5028716;28;20112;-58
2023/10/04 00:22:43;;;;;;;7.60;2.75;;;;;;;15.55;100.00;102438.03;5046214;28;20028;-59
2023/10/04 00:25:11;;;;;;;13.90;2.95;;;;;;;15.53;100.00;102443.38;5046578;28;20025;-59
2023/10/04 00:27:42;;;;;;;13.90;3.08;;;;;;;15.53;100.00;102434.53;5046144;28;20021;-59
2023/10/04 00:30:11;;;;;;;8.75;2.53;;;;;;;15.51;100.00;102434.59;5045559;28;20037;-59
2023/10/04 00:32:37;;;;;;;9.57;2.53;;;;;;;15.45;100.00;102433.91;5046784;28;20025;-57
2023/10/04 00:35:03;;;;;;;11.57;2.85;;;;;;;15.51;100.00;102439.03;5047011;28;20051;-59
2023/10/04 00:37:31;;;;;;;15.48;2.60;;;;;;;15.58;100.00;102432.63;5047131;28;20024;-58
2023/10/04 00:39:58;;;;;;;9.48;2.78;;;;;;;15.58;100.00;102437.94;5045750;28;20124;-59
2023/10/04 00:42:24;;;;;;;11.43;2.45;;;;;;;15.53;100.00;102427.44;5046676;28;20036;-55
2023/10/04 00:44:49;;;;;;;10.43;2.30;;;;;;;15.50;100.00;102437.31;5046408;28;20060;-58
2023/10/04 00:47:16;;;;;;;12.20;2.90;;;;;;;15.45;100.00;102441.88;5047857;28;20029;-57
2023/10/04 00:49:45;;;;;;;8.40;2.47;;;;;;;15.45;100.00;102437.44;5046708;28;20021;-58
2023/10/04 00:52:11;;;;;;;9.02;2.20;;;;;;;15.45;100.00;102437.44;5047641;28;20364;-57
2023/10/04 00:54:38;;;;;;;6.95;2.25;;;;;;;15.46;100.00;102443.59;5030090;28;20032;-58
2023/10/04 00:57:05;;;;;;;9.95;2.78;;;;;;;15.37;100.00;102437.66;5046210;28;20116;-57
2023/10/04 00:59:31;;;;;;;6.38;2.55;;;;;;;15.35;100.00;102447.44;5029045;28;20107;-57
2023/10/04 01:01:56;;;;;;;9.35;2.33;;;;;;;15.32;100.00;102446.69;5046404;28;20792;-58
2023/10/04 01:04:22;;;;;;;15.40;2.53;;;;;;;15.34;100.00;102445.72;5047029;28;20029;-54
2023/10/04 01:06:48;;;;;;;10.75;2.67;;;;;;;15.29;100.00;102453.81;5028747;28;20126;-57
2023/10/04 01:09:14;;;;;;;8.98;2.20;;;;;;;15.28;100.00;102457.38;5011072;28;20415;-58
2023/10/04 01:11:46;;;;;;;8.68;2.50;;;;;;;15.26;100.00;102453.03;5045908;28;20053;-60
2023/10/04 01:14:37;;;;;;;12.27;2.80;;;;;;;15.27;100.00;102468.03;5046259;28;20037;-58
2023/10/04 01:16:57;;;;;;;8.60;2.28;;;;;;;15.28;100.00;102467.13;5030458;28;20102;-58
2023/10/04 01:19:25;;;;;;;10.93;2.70;;;;;;;15.29;100.00;102466.19;5046140;28;20029;-58
2023/10/04 01:21:50;;;;;;;12.52;2.65;;;;;;;15.29;100.00;102469.75;5047281;28;20032;-59
2023/10/04 01:24:19;;;;;;;7.05;2.55;;;;;;;15.28;100.00;102468.00;5047164;28;20378;-57
2023/10/04 01:26:45;;;;;;;8.52;2.17;;;;;;;15.29;100.00;102463.53;5047106;28;20047;-56
2023/10/04 01:29:12;;;;;;;8.52;2.40;;;;;;;15.29;100.00;102468.84;5048360;28;20033;-55
2023/10/04 01:31:38;;;;;;;10.70;2.55;;;;;;;15.27;100.00;102460.94;5047670;28;20041;-55
2023/10/04 01:34:06;;;;;;;7.70;2.40;;;;;;;15.28;100.00;102452.06;5047003;28;20089;-58
2023/10/04 01:36:32;;;;;;;8.18;2.13;;;;;;;15.26;100.00;102453.03;5046610;28;20021;-57
2023/10/04 01:38:58;;;;;;;10.88;2.72;;;;;;;15.24;100.00;102455.72;5046159;28;20043;-59
2023/10/04 01:41:24;;;;;;;10.70;2.40;;;;;;;15.23;100.00;102453.97;5045911;28;20021;-56
2023/10/04 01:43:53;;;;;;;11.43;2.75;;;;;;;15.23;100.00;102458.44;5048851;28;20086;-56
2023/10/04 01:46:19;;;;;;;11.30;2.53;;;;;;;15.22;100.00;102456.66;5049576;28;20029;-56
2023/10/04 01:48:44;;;;;;;10.70;2.10;;;;;;;15.14;100.00;102465.72;5049918;28;20036;-57
2023/10/04 01:51:10;;;;;;;10.10;2.50;;;;;;;15.20;100.00;102459.38;5050580;28;20417;-57
2023/10/04 01:53:36;;;;;;;10.18;2.28;;;;;;;15.19;100.00;102454.09;5030744;28;20024;-57
2023/10/04 01:56:05;;;;;;;7.55;2.55;;;;;;;15.19;100.00;102457.63;5049963;28;20391;-57
2023/10/04 01:58:31;;;;;;;8.95;2.10;;;;;;;15.13;100.00;102458.69;5049373;28;20028;-57
2023/10/04 02:00:56;;;;;;;8.77;2.40;;;;;;;15.14;100.00;102444.47;5050130;28;20094;-57
2023/10/04 02:03:22;;;;;;;9.95;2.13;;;;;;;15.09;100.00;102451.72;5049456;28;20048;-57
2023/10/04 02:05:56;;;;;;;8.50;2.38;;;;;;;15.08;100.00;102444.63;5050052;28;20037;-57
2023/10/04 02:08:22;;;;;;;9.57;2.47;;;;;;;15.04;100.00;102443.00;5050472;28;20025;-56
2023/10/04 02:10:47;;;;;;;8.98;2.60;;;;;;;15.01;100.00;102446.59;5049698;28;20032;-54
2023/10/04 02:13:16;;;;;;;12.45;2.65;;;;;;;15.00;100.00;102451.97;5049385;28;20029;-59
2023/10/04 02:15:42;;;;;;;8.82;2.15;;;;;;;14.96;100.00;102450.31;5050730;28;20025;-55
2023/10/04 02:18:08;;;;;;;9.13;2.42;;;;;;;14.87;100.00;102459.38;5030536;28;20032;-58
2023/10/04 02:20:34;;;;;;;8.20;2.40;;;;;;;14.82;100.00;102454.19;5050295;28;20033;-58
2023/10/04 02:23:02;;;;;;;7.38;2.08;;;;;;;14.82;100.00;102461.28;5050195;28;20438;-52
2023/10/04 02:25:28;;;;;;;11.13;2.63;;;;;;;14.78;100.00;102465.81;5049376;28;20513;-58
2023/10/04 02:27:55;;;;;;;7.78;2.22;;;;;;;14.70;100.00;102465.97;5048960;28;20021;-55
2023/10/04 02:30:26;;;;;;;6.90;2.05;;;;;;;14.74;100.00;102467.63;5049223;28;20021;-55
2023/10/04 02:32:52;;;;;;;11.35;2.30;;;;;;;14.72;100.00;102464.13;5050183;28;20031;-56
2023/10/04 02:35:26;;;;;;;10.90;2.30;;;;;;;14.69;100.00;102468.66;5049712;28;20025;-56
2023/10/04 02:37:58;;;;;;;8.80;2.38;;;;;;;14.67;100.00;102466.03;5048271;28;20041;-57
2023/10/04 02:40:27;;;;;;;9.93;2.17;;;;;;;14.69;100.00;102471.31;5049747;28;20648;-57
2023/10/04 02:42:58;;;;;;;9.98;2.50;;;;;;;14.66;100.00;102482.88;5047479;28;20491;-59
2023/10/04 02:45:24;;;;;;;14.38;3.08;;;;;;;14.69;100.00;102474.81;5031299;28;20640;-56
2023/10/04 02:47:52;;;;;;;11.05;2.60;;;;;;;14.71;100.00;102477.44;5048438;28;20032;-57
2023/10/04 02:50:19;;;;;;;8.05;2.70;;;;;;;14.66;100.00;102478.41;5056267;28;20032;-56
2023/10/04 02:52:45;;;;;;;14.32;2.78;;;;;;;14.60;100.00;102481.22;5068571;28;20413;-58
2023/10/04 02:55:15;;;;;;;12.02;2.80;;;;;;;14.58;100.00;102477.75;5068179;28;20028;-57
2023/10/04 02:57:42;;;;;;;9.50;2.40;;;;;;;14.50;100.00;102480.59;5068732;28;20008;-58
2023/10/04 03:00:17;;;;;;;7.63;2.00;;;;;;;14.49;100.00;102477.97;5067963;28;20044;-59
2023/10/04 03:02:46;;;;;;;6.70;2.38;;;;;;;14.37;100.00;102482.66;5067966;28;20616;-56
2023/10/04 03:05:14;;;;;;;10.38;3.60;;;;;;;14.40;100.00;102482.59;5049229;28;20120;-59
2023/10/04 03:07:41;;;;;;;9.67;2.40;;;;;;;14.38;100.00;102476.44;5048669;28;20415;-58
2023/10/04 03:10:07;;;;;;;11.25;2.85;;;;;;;14.32;100.00;102481.00;5048479;28;20588;-55
2023/10/04 03:12:33;;;;;;;7.43;2.47;;;;;;;14.20;100.00;102477.75;5048114;28;20094;-56
2023/10/04 03:14:58;;;;;;;11.65;2.95;;;;;;;14.20;100.00;102482.16;5047128;28;20024;-53
2023/10/04 03:17:24;;;;;;;12.27;2.63;;;;;;;14.19;100.00;102483.09;5030787;28;20024;-54
2023/10/04 03:19:51;;;;;;;13.27;2.60;;;;;;;14.18;100.00;102484.84;5048181;28;20064;-57
2023/10/04 03:22:19;;;;;;;8.63;2.00;;;;;;;14.11;100.00;102484.13;5047611;28;20025;-56
2023/10/04 03:24:45;;;;;;;12.10;2.47;;;;;;;14.11;100.00;102478.81;5048109;28;20029;-58
2023/10/04 03:27:21;;;;;;;11.13;2.53;;;;;;;14.09;100.00;102471.81;5047454;28;20017;-60
2023/10/04 03:29:51;;;;;;;6.32;2.42;;;;;;;14.08;100.00;102468.28;5048005;28;20025;-58
2023/10/04 03:32:18;;;;;;;9.57;2.65;;;;;;;14.03;100.00;102464.88;5048706;28;20032;-55
2023/10/04 03:34:44;;;;;;;7.40;2.10;;;;;;;14.03;100.00;102459.59;5047463;28;20376;-59
2023/10/04 03:37:09;;;;;;;11.38;3.30;;;;;;;13.98;100.00;102461.47;5048629;28;20017;-56
2023/10/04 03:39:39;;;;;;;11.75;3.38;;;;;;;13.93;100.00;102476.59;5046804;28;20033;-56
2023/10/04 03:42:05;;;;;;;7.63;2.00;;;;;;;13.90;100.00;102474.88;5046144;28;20051;-56
2023/10/04 03:44:31;;;;;;;10.75;2.35;;;;;;;13.91;100.00;102479.28;5046442;28;20464;-55
2023/10/04 03:46:57;;;;;;;9.10;2.70;;;;;;;13.84;100.00;102482.94;5046931;28;20029;-57
2023/10/04 03:49:22;;;;;;;10.52;2.40;;;;;;;13.81;100.00;102483.03;5047456;28;20375;-57
2023/10/04 03:51:53;;;;;;;14.93;3.20;;;;;;;13.77;100.00;102479.56;5047729;28;20479;-59
2023/10/04 03:54:19;;;;;;;12.93;3.03;;;;;;;13.70;100.00;102477.97;5048180;28;20494;-59
2023/10/04 03:56:44;;;;;;;9.93;2.45;;;;;;;13.63;100.00;102472.78;5046812;28;20037;-61
2023/10/04 03:59:10;;;;;;;8.80;3.22;;;;;;;13.62;100.00;102464.88;5047781;28;20029;-59
2023/10/04 04:01:37;;;;;;;6.57;2.40;;;;;;;13.58;100.00;102464.03;5036990;28;20081;-57
2023/10/04 04:04:03;;;;;;;13.93;2.85;;;;;;;13.57;100.00;102464.97;5067641;28;20028;-58
2023/10/04 04:06:30;;;;;;;12.25;2.85;;;;;;;13.52;100.00;102458.91;5066447;28;20441;-54
2023/10/04 04:08:56;;;;;;;11.75;2.60;;;;;;;13.48;100.00;102452.75;5067127;28;20031;-58
2023/10/04 04:11:22;;;;;;;13.70;2.40;;;;;;;13.43;100.00;102448.44;5052794;28;20040;-58
2023/10/04 04:13:48;;;;;;;9.90;2.30;;;;;;;13.36;100.00;102453.88;5047617;28;20348;-57
2023/10/04 04:16:17;;;;;;;5.88;2.22;;;;;;;13.25;100.00;102442.63;5046727;28;20762;-57
2023/10/04 04:18:42;;;;;;;11.15;2.67;;;;;;;13.17;100.00;102447.19;5046561;28;20390;-57
2023/10/04 04:21:08;;;;;;;8.77;2.60;;;;;;;13.12;100.00;102426.09;5046963;28;20104;-57
2023/10/04 04:23:34;;;;;;;11.10;3.03;;;;;;;13.05;100.00;102432.41;5046977;28;20025;-59
2023/10/04 04:26:01;;;;;;;12.13;2.67;;;;;;;13.00;100.00;102437.78;5046414;28;20023;-57
2023/10/04 04:28:26;;;;;;;16.98;2.75;;;;;;;12.93;100.00;102455.56;5046893;28;20640;-58
2023/10/04 04:30:53;;;;;;;10.82;2.50;;;;;;;12.92;100.00;102450.28;5046940;28;20027;-58
2023/10/04 04:33:19;;;;;;;10.85;3.05;;;;;;;12.92;100.00;102458.22;5047636;28;20017;-58
2023/10/04 04:38:16;;;;;;;13.32;3.20;;;;;;;12.99;100.00;102473.97;5046108;28;20127;-58
2023/10/04 04:40:49;;;;;;;10.65;3.00;;;;;;;13.03;100.00;102477.41;5046191;28;20033;-57
2023/10/04 04:45:51;;;;;;;17.42;3.33;;;;;;;13.16;100.00;102482.50;5047013;28;20037;-56
2023/10/04 04:48:29;;;;;;;13.48;3.05;;;;;;;13.18;100.00;102481.56;5046729;28;20120;-58
2023/10/04 04:50:57;;;;;;;13.70;2.80;;;;;;;13.23;100.00;102481.47;5028830;28;20056;-58
2023/10/04 04:53:22;;;;;;;13.43;3.08;;;;;;;13.22;100.00;102487.69;5047555;28;20052;-58
2023/10/04 04:55:51;;;;;;;17.23;3.33;;;;;;;13.22;100.00;102483.25;5020561;28;20504;-58
2023/10/04 04:58:21;;;;;;;12.02;3.53;;;;;;;13.20;100.00;102481.53;5026300;28;20040;-61
2023/10/04 05:00:49;;;;;;;8.20;2.67;;;;;;;13.17;100.00;102484.22;5027770;28;20036;-58
2023/10/04 05:03:18;;;;;;;13.70;3.07;;;;;;;13.17;100.00;102484.22;5044939;28;20030;-58
2023/10/04 05:05:44;;;;;;;12.18;3.47;;;;;;;13.08;100.00;102490.56;5045804;28;20029;-57
2023/10/04 05:08:10;;;;;;;11.60;2.92;;;;;;;13.01;100.00;102490.66;5046241;28;20021;-57
2023/10/04 05:10:38;;;;;;;11.48;3.00;;;;;;;12.99;100.00;102491.59;5045573;28;20025;-59
2023/10/04 05:13:07;;;;;;;12.90;2.70;;;;;;;12.93;100.00;102497.00;5046051;28;20052;-60
2023/10/04 05:15:38;;;;;;;15.25;3.28;;;;;;;12.85;100.00;102500.66;5046458;28;20032;-57
2023/10/04 05:18:10;;;;;;;11.88;3.35;;;;;;;12.86;100.00;102507.69;5048438;28;20045;-58
2023/10/04 05:20:36;;;;;;;13.70;2.92;;;;;;;12.84;100.00;102503.31;5049882;28;20492;-56
2023/10/04 05:23:02;;;;;;;10.90;3.10;;;;;;;12.88;100.00;102505.91;5050549;28;20032;-55
2023/10/04 05:25:28;;;;;;;13.27;2.88;;;;;;;12.92;100.00;102500.56;5045758;28;20029;-57
2023/10/04 05:28:01;;;;;;;16.27;3.20;;;;;;;12.95;100.00;102501.38;5029772;28;20018;-56
2023/10/04 05:30:27;;;;;;;13.43;3.17;;;;;;;12.97;100.00;102503.97;5030259;28;20056;-57
2023/10/04 05:32:53;;;;;;;17.08;3.58;;;;;;;13.03;100.00;102503.88;5028178;28;20026;-55
2023/10/04 05:35:18;;;;;;;12.02;3.33;;;;;;;13.00;100.00;102510.09;5029255;28;20105;-58
2023/10/04 05:37:44;;;;;;;14.30;3.35;;;;;;;12.99;100.00;102513.66;5036423;28;20036;-60
2023/10/04 05:40:17;;;;;;;14.23;3.90;;;;;;;13.01;100.00;102505.69;5048384;28;20052;-57
2023/10/04 05:42:46;;;;;;;18.95;3.90;;;;;;;13.02;100.00;102507.44;5048740;28;20032;-57
2023/10/04 05:45:14;;;;;;;17.45;3.33;;;;;;;13.02;100.00;102510.06;5041982;28;20053;-58
2023/10/04 05:47:40;;;;;;;21.15;3.60;;;;;;;13.01;100.00;102509.19;5048879;28;20039;-60
2023/10/04 05:50:08;;;;;;;12.40;3.17;;;;;;;13.02;100.00;102523.31;5028081;28;20029;-57
2023/10/04 05:52:33;;;;;;;13.20;3.20;;;;;;;12.98;100.00;102524.28;5028189;28;20044;-58
2023/10/04 05:55:00;;;;;;;13.32;3.50;;;;;;;12.95;100.00;102522.56;5027718;28;20026;-60
2023/10/04 05:57:26;;;;;;;8.30;2.70;;;;;;;12.94;100.00;102526.09;5027689;28;20442;-57
2023/10/04 05:59:51;;;;;;;15.20;3.05;;;;;;;12.93;100.00;102529.63;5027661;28;20052;-58
2023/10/04 06:02:17;;;;;;;8.00;3.13;;;;;;;12.94;100.00;102531.38;5027660;28;20104;-55
2023/10/04 06:04:42;;;;;;;14.00;3.35;;;;;;;12.92;100.00;102530.53;5033364;28;20025;-59
2023/10/04 06:07:08;;;;;;;9.15;3.03;;;;;;;12.93;100.00;102528.75;5048488;28;20048;-59
2023/10/04 06:09:34;;;;;;;14.75;2.88;;;;;;;12.94;100.00;102531.38;5045564;28;20078;-57
2023/10/04 06:12:01;;;;;;;12.15;3.03;;;;;;;12.95;100.00;102540.19;5047244;28;20031;-59
2023/10/04 06:14:27;;;;;;;11.73;3.05;;;;;;;12.92;100.00;102532.31;5048288;28;20420;-59
2023/10/04 06:16:53;;;;;;;13.48;3.72;;;;;;;12.89;100.00;102534.09;5045992;28;20036;-57
2023/10/04 06:19:19;;;;;;;12.05;3.30;;;;;;;12.88;100.00;102529.72;5047508;28;20037;-57
2023/10/04 06:21:49;;;;;;;13.70;3.45;;;;;;;12.87;100.00;102533.25;5047174;28;20565;-57
2023/10/04 06:24:15;;;;;;;11.27;3.22;;;;;;;12.91;100.00;102536.72;5047552;28;20064;-56
2023/10/04 06:26:41;;;;;;;14.80;3.47;;;;;;;13.03;100.00;102535.63;5041664;28;20041;-57
2023/10/04 06:29:07;;;;;;;13.90;3.85;;;;;;;13.12;100.00;102532.84;5047642;28;20504;-59
2023/10/04 06:31:32;;;;;;;15.55;3.75;;;;;;;13.26;100.00;102543.19;5047802;28;20017;-59
2023/10/04 06:33:59;;;;;;;15.15;3.65;;;;;;;13.32;100.00;102536.91;5047828;28;20464;-57
2023/10/04 06:36:25;;;;;;;11.15;3.40;;;;;;;13.39;100.00;102543.84;5047194;28;20025;-59
2023/10/04 06:38:51;;;;;;;16.10;3.38;;;;;;;13.48;100.00;102541.91;5044778;28;20078;-57
2023/10/04 06:41:17;;;;;;;11.80;3.22;;;;;;;13.53;100.00;102537.44;5045932;28;20029;-59
2023/10/04 06:43:43;;;;;;;8.98;2.90;;;;;;;13.64;100.00;102542.53;5047183;28;20033;-58
2023/10/04 06:46:08;;;;;;;11.98;3.38;;;;;;;13.69;100.00;102540.66;5047259;28;20032;-61
2023/10/04 06:48:33;;;;;;;6.35;3.15;;;;;;;13.81;100.00;102543.97;5047776;28;20029;-58
2023/10/04 06:50:59;;;;;;;12.65;3.65;;;;;;;13.92;100.00;102549.91;5047108;28;20032;-60
2023/10/04 06:53:25;;;;;;;10.43;3.30;;;;;;;14.01;100.00;102557.69;5046579;28;20017;-57
2023/10/04 06:55:50;;;;;;;15.52;3.22;;;;;;;14.13;100.00;102556.56;5047113;28;20027;-57
2023/10/04 06:58:15;;;;;;;7.95;3.25;;;;;;;14.19;100.00;102558.19;5048059;28;20024;-56
2023/10/04 07:00:41;;;;;;;20.80;3.70;;;;;;;14.27;100.00;102558.03;5046693;28;20471;-58
2023/10/04 07:03:07;;;;;;;12.80;3.78;;;;;;;14.38;100.00;102557.78;5027819;28;20380;-58
2023/10/04 07:05:39;;;;;;;16.70;4.10;;;;;;;14.51;100.00;102561.03;5026540;28;20030;-55
2023/10/04 07:08:07;;;;;;;11.98;3.28;;;;;;;14.66;100.00;102558.00;5027536;28;20033;-57
2023/10/04 07:10:33;;;;;;;13.02;3.60;;;;;;;14.78;100.00;102567.50;5009330;28;20085;-57
2023/10/04 07:13:01;;;;;;;13.82;4.38;;;;;;;14.84;100.00;102563.81;5026757;28;20032;-56
2023/10/04 07:15:28;;;;;;;12.82;4.05;;;;;;;14.96;100.00;102557.31;5029962;28;20085;-61
2023/10/04 07:17:54;;;;;;;14.35;3.55;;;;;;;15.01;100.00;102551.91;5047021;28;20067;-57
2023/10/04 07:20:19;;;;;;;11.80;3.90;;;;;;;15.15;100.00;102562.19;5046700;28;20067;-58
2023/10/04 07:22:58;;;;;;;11.25;3.65;;;;;;;15.16;100.00;102558.59;5047086;28;20056;-59
2023/10/04 07:25:27;;;;;;;19.92;4.50;;;;;;;15.20;100.00;102562.91;5046814;28;20025;-58
2023/10/04 07:27:53;;;;;;;9.82;3.58;;;;;;;15.32;100.00;102564.38;5046977;28;20025;-57
2023/10/04 07:30:19;;;;;;;11.30;4.03;;;;;;;15.41;100.00;102561.47;5047832;28;20036;-55
2023/10/04 07:32:46;;;;;;;16.17;3.85;;;;;;;15.51;100.00;102561.25;5047327;28;20459;-55
2023/10/04 07:35:15;;;;;;;13.45;3.70;;;;;;;15.50;100.00;102567.47;5038451;28;20400;-55
2023/10/04 07:37:41;;;;;;;;;;;;;;;15.61;100.00;102570.72;5028279;28;20075;-56
2023/10/04 07:40:09;;;;;;;13.75;3.97;;;;;;;15.66;100.00;102574.09;5025508;28;20008;-58
2023/10/04 07:42:36;;;;;;;15.68;3.75;;;;;;;15.72;100.00;102574.84;5027501;28;20034;-56
2023/10/04 07:45:03;;;;;;;12.82;4.15;;;;;;;15.87;100.00;102577.06;5026014;28;20482;-57
2023/10/04 07:47:28;;;;;;;14.57;4.15;;;;;;;15.84;100.00;102586.91;5027238;28;20446;-56
2023/10/04 07:49:54;;;;;;;16.23;3.60;;;;;;;16.07;100.00;102583.63;5027329;28;20026;-57
2023/10/04 07:52:19;;;;;;;13.52;4.35;;;;;;;16.22;100.00;102586.75;5041285;28;20047;-56
2023/10/04 07:54:44;;;;;;;14.57;4.00;;;;;;;16.34;100.00;102594.34;5048276;28;20032;-56
2023/10/04 07:57:10;;;;;;;13.23;4.00;;;;;;;16.41;100.00;102603.88;5047945;28;20134;-57
2023/10/04 07:59:36;;;;;;;14.75;4.18;;;;;;;16.57;100.00;102600.75;5044434;28;20047;-61
2023/10/04 08:02:03;;;;;;;11.10;4.05;;;;;;;16.64;100.00;102610.28;5045271;28;20162;-59
2023/10/04 08:04:29;;;;;;;14.27;3.70;;;;;;;16.69;100.00;102607.47;5028516;28;20040;-58
2023/10/04 08:06:54;;;;;;;14.43;4.35;;;;;;;16.71;100.00;102607.44;5045285;28;20045;-57
2023/10/04 08:09:21;;;;;;;19.95;4.55;;;;;;;16.71;100.00;102604.78;5034628;28;20075;-58
2023/10/04 08:11:47;;;;;;;17.90;4.38;;;;;;;16.80;100.00;102615.13;5057958;28;20518;-57
2023/10/04 08:14:12;;;;;;;17.27;4.15;;;;;;;16.83;100.00;102603.50;5048861;28;20033;-59
2023/10/04 08:16:37;;;;;;;13.82;4.10;;;;;;;16.82;100.00;102610.63;5026458;28;20101;-58
2023/10/04 08:19:04;;;;;;;13.93;4.65;;;;;;;16.90;100.00;102607.72;5026403;28;20069;-56
2023/10/04 08:21:30;;;;;;;12.20;4.00;;;;;;;16.98;100.00;102602.16;5043723;28;20036;-57
2023/10/04 08:23:55;;;;;;;18.85;4.47;;;;;;;17.05;100.00;102603.69;5044730;28;20021;-57
2023/10/04 08:26:22;;;;;;;19.60;4.53;;;;;;;17.21;100.00;102611.16;5043983;28;20549;-59
2023/10/04 08:28:48;;;;;;;20.65;4.78;;;;;;;17.27;100.00;102608.28;5045062;28;20039;-64
2023/10/04 08:31:13;;;;;;;17.38;4.28;;;;;;;17.29;100.00;102606.47;5044195;28;20037;-60
2023/10/04 08:33:39;;;;;;;15.25;4.43;;;;;;;17.27;100.00;102601.19;5045488;28;20036;-59
2023/10/04 08:36:10;;;;;;;13.80;4.25;;;;;;;17.38;100.00;102597.28;5044179;28;20021;-59
2023/10/04 08:38:36;;;;;;;11.02;4.00;;;;;;;17.33;100.00;102602.75;5031288;28;20034;-57
2023/10/04 08:41:02;;;;;;;19.80;4.97;;;;;;;17.36;100.00;102596.44;5043750;28;20021;-60
2023/10/04 08:43:29;;;;;;;19.58;5.00;;;;;;;17.18;100.00;102591.72;5044521;28;20055;-57
2023/10/04 08:45:56;;;;;;;15.40;4.68;;;;;;;17.01;100.00;102599.38;5044953;28;20056;-59
2023/10/04 08:48:25;;;;;;;13.85;4.47;;;;;;;16.94;100.00;102596.03;5044875;28;20102;-57
2023/10/04 08:50:56;;;;;;;16.73;4.28;;;;;;;16.91;100.00;102605.00;5045388;28;20100;-59
2023/10/04 08:53:30;;;;;;;18.83;4.47;;;;;;;17.08;100.00;102598.28;5049412;28;20051;-58
2023/10/04 08:56:08;;;;;;;17.08;4.70;;;;;;;17.14;100.00;102600.75;5029913;28;20017;-56
2023/10/04 08:58:34;;;;;;;14.90;4.20;;;;;;;17.32;100.00;102602.81;5049912;28;20025;-55
2023/10/04 09:01:01;;;;;;;16.38;4.40;;;;;;;17.39;100.00;102594.56;5032954;28;20021;-57
2023/10/04 09:03:27;;;;;;;19.27;4.55;;;;;;;17.41;100.00;102595.41;5032350;28;20040;-59
2023/10/04 09:05:54;;;;;;;20.13;4.90;;;;;;;17.54;100.00;102600.28;5050273;28;20133;-59
2023/10/04 09:08:22;;;;;;;14.40;3.80;;;;;;;17.65;100.00;102600.78;5029147;28;20032;-58
2023/10/04 09:10:47;;;;;;;15.65;4.72;;;;;;;17.67;100.00;102600.72;5032071;28;20036;-57
2023/10/04 09:13:12;;;;;;;22.08;5.15;;;;;;;17.82;100.00;102593.94;5048325;28;20029;-57
2023/10/04 09:15:38;;;;;;;14.13;4.20;;;;;;;17.93;100.00;102594.44;5048100;28;20025;-56
2023/10/04 09:18:04;;;;;;;28.48;4.60;;;;;;;18.02;100.00;102597.66;5049670;28;20108;-58
2023/10/04 09:20:32;;;;;;;16.27;4.28;;;;;;;18.13;100.00;102592.84;5045764;28;20171;-57
2023/10/04 09:23:00;;;;;;;13.77;4.15;;;;;;;18.16;100.00;102591.84;5049431;28;20029;-57
2023/10/04 09:25:39;;;;;;;13.55;4.00;;;;;;;18.28;100.00;102603.84;5055687;28;20031;-57
2023/10/04 09:28:07;;;;;;;12.70;3.60;;;;;;;18.51;100.00;102602.94;5050387;28;20028;-56
2023/10/04 09:30:36;;;;;;;11.93;4.00;;;;;;;18.70;100.00;102602.22;5044610;28;20074;-58
2023/10/04 09:33:04;;;;;;;19.55;4.53;;;;;;;18.72;100.00;102610.16;5038277;28;20431;-59
2023/10/04 09:35:43;;;;;;;22.13;4.50;;;;;;;18.69;100.00;102609.34;5051004;28;20302;-56
2023/10/04 09:38:15;;;;;;;;;;;;;;;18.81;100.00;102620.44;5049464;28;20369;-61
2023/10/04 09:40:50;;;;;;;15.10;3.72;;;;;;;18.71;100.00;102613.75;5047743;28;19916;-55
2023/10/04 09:43:15;;;;;;;14.80;3.83;;;;;;;18.62;100.00;102606.97;5051863;28;20364;-60
2023/10/04 09:45:55;;;;;;;18.27;3.80;;;;;;;18.72;100.00;102605.66;5029841;28;20017;-63
2023/10/04 09:48:21;;;;;;;17.83;3.70;;;;;;;18.84;100.00;102604.31;5060012;28;20137;-59
2023/10/04 09:50:46;;;;;;;11.05;3.58;;;;;;;18.85;99.81;102600.72;5046941;28;20199;-58
2023/10/04 09:53:12;;;;;;;17.90;3.83;;;;;;;18.89;98.93;102596.09;5049088;28;20033;-57
2023/10/04 09:55:37;;;;;;;12.93;3.83;;;;;;;18.92;97.67;102598.66;5049449;28;20497;-55
2023/10/04 09:58:04;;;;;;;9.93;3.90;;;;;;;18.79;97.57;102608.97;5048281;28;20021;-59
2023/10/04 10:00:30;;;;;;;16.83;4.35;;;;;;;18.57;98.12;102601.81;5032543;28;20025;-56
2023/10/04 10:02:57;;;;;;;17.17;4.43;;;;;;;18.44;100.00;102598.78;5046203;28;20479;-55
2023/10/04 10:05:29;;;;;;;13.20;4.13;;;;;;;18.23;100.00;102600.47;5029470;28;20025;-58
2023/10/04 10:08:04;;;;;;;13.68;3.80;;;;;;;18.13;100.00;102602.63;5010530;28;20037;-63
2023/10/04 10:10:33;;;;;;;11.45;3.85;;;;;;;17.93;100.00;102605.09;5033270;28;20451;-59
2023/10/04 10:12:59;;;;;;;14.27;4.05;;;;;;;17.76;100.00;102602.19;5049584;28;20683;-57
2023/10/04 10:15:24;;;;;;;11.57;3.65;;;;;;;17.58;100.00;102595.72;5048287;28;20116;-53
2023/10/04 10:17:51;;;;;;;10.40;3.78;;;;;;;17.65;100.00;102603.44;5049605;28;20100;-56
2023/10/04 10:20:19;;;;;;;16.10;4.40;;;;;;;17.64;100.00;102596.34;5031863;28;20025;-57
2023/10/04 10:22:57;;;;;;;17.23;4.63;;;;;;;17.74;100.00;102604.91;5048758;28;20109;-57
2023/10/04 10:25:23;;;;;;;15.03;3.90;;;;;;;17.72;100.00;102608.53;5048497;28;20450;-57
2023/10/04 10:27:48;;;;;;;13.60;3.58;;;;;;;17.72;100.00;102611.19;5048701;28;20021;-56
2023/10/04 10:30:16;;;;;;;10.70;3.50;;;;;;;17.85;100.00;102607.16;5048196;28;20468;-60
2023/10/04 10:32:54;;;;;;;12.82;3.72;;;;;;;18.22;100.00;102610.28;5049536;28;20333;-56
2023/10/04 10:35:59;;;;;;;13.60;3.97;;;;;;;18.54;100.00;102604.59;5047896;28;20411;-59
2023/10/04 10:38:40;;;;;;;15.57;3.83;;;;;;;18.67;100.00;102600.50;5048628;28;20025;-56
2023/10/04 10:41:06;;;;;;;9.82;3.25;;;;;;;18.60;98.60;102584.81;5047030;28;20094;-58
2023/10/04 10:43:31;;;;;;;10.93;3.70;;;;;;;18.84;91.23;102582.09;5048576;28;20108;-57
2023/10/04 10:45:57;;;;;;;13.05;3.15;;;;;;;19.11;87.52;102581.91;5047220;28;20025;-57
2023/10/04 10:48:31;;;;;;;15.63;4.07;;;;;;;19.22;85.07;102581.41;5048082;28;20021;-58
2023/10/04 10:50:56;;;;;;;11.65;3.72;;;;;;;19.22;83.70;102579.63;5046683;28;20029;-58
2023/10/04 10:53:23;;;;;;;8.25;3.40;;;;;;;19.33;81.73;102584.50;5047965;28;20359;-58
2023/10/04 10:55:49;;;;;;;10.15;3.70;;;;;;;19.45;79.90;102578.59;5028566;28;20025;-57
2023/10/04 10:58:14;;;;;;;8.73;3.10;;;;;;;19.55;77.83;102583.56;5047369;28;20017;-58
2023/10/04 11:00:40;;;;;;;7.68;3.30;;;;;;;19.56;79.87;102572.78;5048295;28;20184;-58
2023/10/04 11:03:10;;;;;;;6.50;3.10;;;;;;;19.54;80.89;102587.16;5047520;28;20052;-58
2023/10/04 11:05:36;;;;;;;10.48;3.83;;;;;;;19.42;83.38;102578.75;5047139;28;20090;-58
2023/10/04 11:08:06;;;;;;;13.75;3.78;;;;;;;19.57;80.36;102592.38;5047745;28;20032;-57
2023/10/04 11:10:34;;;;;;;11.80;3.65;;;;;;;19.41;80.76;102582.34;5046736;28;20072;-56
2023/10/04 11:13:03;;;;;;;10.10;3.30;;;;;;;19.32;81.87;102593.44;5047239;28;20021;-59
2023/10/04 11:15:29;;;;;;;14.68;4.28;;;;;;;19.03;82.72;102588.38;5046190;28;20033;-56
2023/10/04 11:17:55;;;;;;;14.32;4.53;;;;;;;18.92;83.01;102586.19;5047046;28;20020;-57